createdAt,value
2019-04-29T00:00:46.706Z,79287.94
2019-04-29T00:03:16.007Z,79279.84
2019-04-29T00:05:45.373Z,79280.86
2019-04-29T00:08:14.620Z,79271.77
2019-04-29T00:10:43.922Z,79269.74
2019-04-29T00:13:14.042Z,79270.75
2019-04-29T00:15:56.327Z,79273.78
2019-04-29T00:18:35.553Z,79278.84
2019-04-29T00:21:04.822Z,79271.77
2019-04-29T00:23:34.063Z,79268.73
2019-04-29T00:26:05.134Z,79280.86
2019-04-29T00:28:34.857Z,79274.80
2019-04-29T00:31:04.218Z,79291.98
2019-04-29T00:33:33.852Z,79316.23
2019-04-29T00:36:03.106Z,79316.23
2019-04-29T00:38:54.667Z,79310.17
2019-04-29T00:41:46.314Z,79258.63
2019-04-29T00:44:17.628Z,79295.01
2019-04-29T00:46:47.261Z,79303.09
2019-04-29T00:49:16.860Z,79303.09
2019-04-29T00:51:48.217Z,79313.20
2019-04-29T00:54:38.232Z,79329.38
2019-04-29T00:57:07.815Z,79328.36
2019-04-29T00:59:38.478Z,79319.27
2019-04-29T01:02:08.524Z,79324.32
2019-04-29T01:04:38.176Z,79333.42
2019-04-29T01:07:08.642Z,79343.52
2019-04-29T01:09:37.876Z,79365.77
2019-04-29T01:12:07.651Z,79369.80
2019-04-29T01:14:37.011Z,79381.93
2019-04-29T01:17:06.279Z,79399.11
2019-04-29T01:19:35.900Z,79394.06
2019-04-29T01:22:05.360Z,79395.07
2019-04-29T01:24:34.624Z,79388.00
2019-04-29T01:27:17.778Z,79372.84
2019-04-29T01:29:47.228Z,79354.64
2019-04-29T01:32:16.515Z,79382.94
2019-04-29T01:34:54.342Z,79390.02
2019-04-29T01:37:41.240Z,79394.06
2019-04-29T01:40:29.623Z,79372.84
2019-04-29T01:42:58.899Z,79368.80
2019-04-29T01:45:28.541Z,79362.73
2019-04-29T01:47:58.576Z,79352.63
2019-04-29T01:50:27.823Z,79372.84
2019-04-29T01:52:57.471Z,79393.05
2019-04-29T01:55:27.047Z,79404.17
2019-04-29T01:57:56.688Z,79398.10
2019-04-29T02:00:25.951Z,79339.48
2019-04-29T02:02:55.679Z,79350.59
2019-04-29T02:05:24.955Z,79353.63
2019-04-29T02:07:54.204Z,79352.63
2019-04-29T02:10:33.211Z,79378.90
2019-04-29T02:13:03.256Z,79397.09
2019-04-29T02:15:32.523Z,79418.31
2019-04-29T02:18:01.934Z,79410.23
2019-04-29T02:20:31.200Z,79414.28
2019-04-29T02:23:26.659Z,79424.38
2019-04-29T02:25:56.304Z,79422.36
2019-04-29T02:28:25.653Z,79433.48
2019-04-29T02:30:54.939Z,79412.25
2019-04-29T02:33:24.608Z,79412.25
2019-04-29T02:35:54.163Z,79400.13
2019-04-29T02:38:42.356Z,79403.16
2019-04-29T02:41:33.333Z,79397.09
2019-04-29T02:44:04.641Z,79402.15
2019-04-29T02:46:35.380Z,79411.24
2019-04-29T02:49:04.678Z,79416.30
2019-04-29T02:51:49.150Z,79416.30
2019-04-29T02:54:19.936Z,79415.28
2019-04-29T02:56:56.093Z,79420.34
2019-04-29T02:59:31.500Z,79401.14
2019-04-29T03:02:25.751Z,79407.20
2019-04-29T03:05:13.709Z,79406.19
2019-04-29T03:07:43.006Z,79388.00
2019-04-29T03:10:12.731Z,79394.06
2019-04-29T03:12:42.324Z,79392.04
2019-04-29T03:15:13.047Z,79381.93
2019-04-29T03:17:43.946Z,79358.69
2019-04-29T03:20:22.060Z,79349.59
2019-04-29T03:23:07.638Z,79312.19
2019-04-29T03:25:37.344Z,79318.26
2019-04-29T03:28:07.057Z,79349.59
2019-04-29T03:30:36.606Z,79381.93
2019-04-29T03:33:06.074Z,79392.04
2019-04-29T03:35:38.245Z,79415.28
2019-04-29T03:38:10.238Z,79417.31
2019-04-29T03:40:41.134Z,79422.36
2019-04-29T03:43:11.984Z,79415.28
2019-04-29T03:45:42.315Z,79401.14
2019-04-29T03:48:11.705Z,79421.35
2019-04-29T03:50:41.330Z,79431.45
2019-04-29T03:53:10.644Z,79442.58
2019-04-29T03:55:41.634Z,79434.48
2019-04-29T03:58:10.974Z,79434.48
2019-04-29T04:00:44.277Z,79441.56
2019-04-29T04:03:28.902Z,79462.80
2019-04-29T04:06:05.646Z,79470.88
2019-04-29T04:08:42.746Z,79484.02
2019-04-29T04:11:12.107Z,79483.00
2019-04-29T04:13:41.492Z,79473.91
2019-04-29T04:16:22.177Z,79425.39
2019-04-29T04:19:12.082Z,79438.53
2019-04-29T04:21:42.988Z,79464.81
2019-04-29T04:24:12.624Z,79483.00
2019-04-29T04:26:43.595Z,79482.00
2019-04-29T04:29:12.868Z,79494.13
2019-04-29T04:31:44.310Z,79492.10
2019-04-29T04:34:14.575Z,79448.64
2019-04-29T04:36:45.831Z,79432.47
2019-04-29T04:39:15.494Z,79423.38
2019-04-29T04:41:44.960Z,79439.55
2019-04-29T04:44:14.642Z,79439.55
2019-04-29T04:46:47.825Z,79428.42
2019-04-29T04:49:19.276Z,79432.47
2019-04-29T04:51:50.836Z,79422.36
2019-04-29T04:54:20.144Z,79409.22
2019-04-29T04:56:50.704Z,79395.07
2019-04-29T04:59:21.839Z,79386.98
2019-04-29T05:01:51.475Z,79360.70
2019-04-29T05:04:21.156Z,79336.45
2019-04-29T05:06:50.778Z,79309.16
2019-04-29T05:09:21.843Z,79273.78
2019-04-29T05:11:51.617Z,79248.52
2019-04-29T05:14:23.009Z,79214.16
2019-04-29T05:16:52.530Z,79195.96
2019-04-29T05:19:22.145Z,79154.52
2019-04-29T05:21:51.755Z,79097.92
2019-04-29T05:24:22.029Z,79088.83
2019-04-29T05:26:51.336Z,79071.65
2019-04-29T05:29:20.635Z,79052.45
2019-04-29T05:31:51.686Z,79044.36
2019-04-29T05:34:22.712Z,79034.25
2019-04-29T05:37:18.584Z,79015.05
2019-04-29T05:39:47.987Z,78980.69
2019-04-29T05:42:17.582Z,78931.17
2019-04-29T05:45:10.132Z,78700.75
2019-04-29T05:47:44.436Z,78441.05
2019-04-29T05:50:32.454Z,78169.23
2019-04-29T05:53:31.768Z,77970.19
2019-04-29T05:56:02.086Z,77833.78
2019-04-29T05:58:37.821Z,77725.68
2019-04-29T06:01:09.649Z,77607.47
2019-04-29T06:03:44.375Z,77421.58
2019-04-29T06:06:15.821Z,77400.37
2019-04-29T06:08:49.017Z,77279.14
2019-04-29T06:11:19.544Z,77298.33
2019-04-29T06:13:51.950Z,77234.69
2019-04-29T06:16:22.849Z,77192.27
2019-04-29T06:18:59.694Z,77267.02
2019-04-29T06:21:24.689Z,77259.95
2019-04-29T06:23:59.496Z,77399.36
2019-04-29T06:26:27.165Z,77830.75
2019-04-29T06:28:56.741Z,78141.95
2019-04-29T06:31:27.377Z,78174.28
2019-04-29T06:34:00.584Z,78226.83
2019-04-29T06:36:32.415Z,78238.95
2019-04-29T06:39:02.032Z,78168.22
2019-04-29T06:41:31.294Z,77858.03
2019-04-29T06:44:06.662Z,77815.59
2019-04-29T06:46:33.148Z,77755.98
2019-04-29T06:49:09.925Z,77878.23
2019-04-29T06:51:33.501Z,78281.39
2019-04-29T06:54:04.762Z,78487.53
2019-04-29T06:56:34.494Z,78598.69
2019-04-29T06:59:07.522Z,78623.95
2019-04-29T07:01:37.448Z,78686.61
2019-04-29T07:04:06.185Z,78705.80
2019-04-29T07:06:35.465Z,78682.56
2019-04-29T07:09:06.730Z,78672.45
2019-04-29T07:11:36.969Z,78646.19
2019-04-29T07:14:10.703Z,78639.11
2019-04-29T07:16:40.079Z,78617.89
2019-04-29T07:19:10.330Z,78557.25
2019-04-29T07:21:41.961Z,78527.95
2019-04-29T07:24:11.436Z,78468.33
2019-04-29T07:26:42.526Z,78410.73
2019-04-29T07:29:13.130Z,78450.14
2019-04-29T07:31:42.649Z,78484.50
2019-04-29T07:34:12.961Z,78447.11
2019-04-29T07:36:43.787Z,78377.39
2019-04-29T07:39:14.063Z,78332.92
2019-04-29T07:41:43.362Z,78442.06
2019-04-29T07:44:18.261Z,78500.66
2019-04-29T07:46:56.625Z,78457.22
2019-04-29T07:49:23.539Z,78445.09
2019-04-29T07:51:54.015Z,78432.96
2019-04-29T07:54:23.354Z,78487.53
2019-04-29T07:56:52.653Z,78552.20
2019-04-29T07:59:22.287Z,78545.13
2019-04-29T08:01:55.795Z,78516.84
2019-04-29T08:04:26.367Z,78451.16
2019-04-29T08:06:57.074Z,78435.99
2019-04-29T08:09:27.562Z,78487.53
2019-04-29T08:11:57.164Z,78488.54
2019-04-29T08:14:27.411Z,78484.50
2019-04-29T08:16:56.650Z,78504.70
2019-04-29T08:19:29.487Z,78521.89
2019-04-29T08:21:57.178Z,78492.58
2019-04-29T08:24:26.799Z,78422.86
2019-04-29T08:26:57.733Z,78330.91
2019-04-29T08:29:30.857Z,78413.77
2019-04-29T08:32:02.293Z,78401.64
2019-04-29T08:34:31.595Z,78357.17
2019-04-29T08:37:01.275Z,78332.92
2019-04-29T08:39:32.255Z,78361.22
2019-04-29T08:42:08.731Z,78347.07
2019-04-29T08:44:54.636Z,78283.41
2019-04-29T08:47:31.483Z,78272.30
2019-04-29T08:49:59.432Z,78245.02
2019-04-29T08:52:29.119Z,78324.84
2019-04-29T08:54:58.697Z,78316.76
2019-04-29T08:57:31.804Z,78320.80
2019-04-29T09:00:00.566Z,78229.86
2019-04-29T09:02:34.987Z,78224.80
2019-04-29T09:05:02.503Z,78370.31
2019-04-29T09:07:32.611Z,78387.48
2019-04-29T09:10:03.646Z,78357.17
2019-04-29T09:12:32.881Z,78342.02
2019-04-29T09:15:02.434Z,78362.23
2019-04-29T09:17:33.263Z,78379.41
2019-04-29T09:20:02.901Z,78344.04
2019-04-29T09:22:35.499Z,78372.33
2019-04-29T09:25:32.586Z,78319.79
2019-04-29T09:28:06.323Z,78262.19
2019-04-29T09:30:38.662Z,78300.59
2019-04-29T09:33:08.698Z,78317.77
2019-04-29T09:35:38.854Z,78278.36
2019-04-29T09:38:09.225Z,78257.14
2019-04-29T09:40:45.655Z,78240.97
2019-04-29T09:43:26.206Z,78240.97
2019-04-29T09:46:01.159Z,78277.34
2019-04-29T09:48:30.431Z,78275.33
2019-04-29T09:51:01.594Z,78304.63
2019-04-29T09:53:32.470Z,78330.91
2019-04-29T09:56:01.819Z,78330.91
2019-04-29T09:58:31.360Z,78293.52
2019-04-29T10:01:27.253Z,78294.53
2019-04-29T10:04:16.785Z,78251.08
2019-04-29T10:06:47.701Z,78273.31
2019-04-29T10:09:16.954Z,78248.05
2019-04-29T10:11:46.237Z,78281.39
2019-04-29T10:14:15.501Z,78281.39
2019-04-29T10:17:06.707Z,78275.33
2019-04-29T10:19:44.174Z,78233.90
2019-04-29T10:22:13.438Z,78234.91
2019-04-29T10:24:44.183Z,78219.75
2019-04-29T10:27:15.054Z,78228.84
2019-04-29T10:29:46.526Z,78176.30
2019-04-29T10:32:15.882Z,78123.77
2019-04-29T10:34:47.001Z,78144.98
2019-04-29T10:37:16.359Z,78120.73
2019-04-29T10:40:10.614Z,78141.95
2019-04-29T10:42:36.494Z,78135.89
2019-04-29T10:45:21.714Z,78178.33
2019-04-29T10:48:01.176Z,78213.69
2019-04-29T10:50:52.230Z,78204.59
2019-04-29T10:53:23.558Z,78247.03
2019-04-29T10:55:53.585Z,78211.67
2019-04-29T10:58:30.198Z,78114.67
2019-04-29T11:01:37.547Z,78075.27
2019-04-29T11:04:08.834Z,78069.20
2019-04-29T11:06:38.640Z,78007.56
2019-04-29T11:09:27.501Z,78066.17
2019-04-29T11:11:57.147Z,78128.81
2019-04-29T11:14:26.868Z,78128.81
2019-04-29T11:16:56.614Z,78178.33
2019-04-29T11:19:26.242Z,78131.84
2019-04-29T11:21:55.902Z,78050.00
2019-04-29T11:24:46.395Z,78065.16
2019-04-29T11:27:20.465Z,78077.28
2019-04-29T11:29:52.197Z,78072.23
2019-04-29T11:32:30.338Z,78093.45
2019-04-29T11:35:28.479Z,78048.99
2019-04-29T11:37:59.963Z,78103.55
2019-04-29T11:40:43.185Z,78061.12
2019-04-29T11:43:02.526Z,78132.86
2019-04-29T11:45:33.741Z,78105.58
2019-04-29T11:48:06.863Z,78093.45
2019-04-29T11:50:49.394Z,78035.86
2019-04-29T11:53:16.147Z,78012.62
2019-04-29T11:55:46.425Z,78070.21
2019-04-29T11:58:26.701Z,78053.03
2019-04-29T12:01:10.343Z,78074.25
2019-04-29T12:03:40.721Z,78060.11
2019-04-29T12:06:16.367Z,78046.97
2019-04-29T12:08:48.168Z,78034.84
2019-04-29T12:11:15.857Z,78088.40
2019-04-29T12:14:10.219Z,78111.64
2019-04-29T12:16:46.966Z,78125.78
2019-04-29T12:19:24.576Z,78127.80
2019-04-29T12:21:53.847Z,78114.67
2019-04-29T12:24:23.086Z,78060.11
2019-04-29T12:26:52.714Z,78056.06
2019-04-29T12:29:22.040Z,78009.59
2019-04-29T12:32:12.309Z,78094.46
2019-04-29T12:34:56.026Z,78032.83
2019-04-29T12:37:48.578Z,77950.98
2019-04-29T12:40:41.014Z,77987.36
2019-04-29T12:43:27.962Z,77963.11
2019-04-29T12:46:25.239Z,77939.88
2019-04-29T12:48:54.634Z,77959.06
2019-04-29T12:51:24.230Z,77991.40
2019-04-29T12:53:53.772Z,77963.11
2019-04-29T12:56:35.471Z,78005.55
2019-04-29T12:59:06.157Z,77977.25
2019-04-29T13:01:51.275Z,78068.19
2019-04-29T13:04:33.621Z,78100.52
2019-04-29T13:07:22.120Z,78137.91
2019-04-29T13:09:52.875Z,78153.06
2019-04-29T13:12:25.041Z,78165.19
2019-04-29T13:15:14.158Z,78153.06
2019-04-29T13:18:08.570Z,78134.88
2019-04-29T13:20:36.426Z,78147.00
2019-04-29T13:23:17.714Z,78152.05
2019-04-29T13:25:38.881Z,78145.99
2019-04-29T13:28:08.216Z,78126.80
2019-04-29T13:30:37.474Z,78061.12
2019-04-29T13:33:15.946Z,78010.59
2019-04-29T13:35:47.964Z,78031.81
2019-04-29T13:38:09.824Z,78028.78
2019-04-29T13:40:39.521Z,78011.61
2019-04-29T13:43:10.314Z,77963.11
2019-04-29T13:45:47.004Z,77961.09
2019-04-29T13:48:55.230Z,78003.52
2019-04-29T13:51:34.817Z,78033.84
2019-04-29T13:53:55.410Z,78010.59
2019-04-29T13:56:35.163Z,78058.09
2019-04-29T13:58:57.965Z,78082.34
2019-04-29T14:02:00.095Z,78116.69
2019-04-29T14:04:27.110Z,78118.71
2019-04-29T14:06:57.667Z,78145.99
2019-04-29T14:09:28.588Z,78112.65
2019-04-29T14:12:02.108Z,78134.88
2019-04-29T14:14:30.225Z,78147.00
2019-04-29T14:17:17.051Z,78119.72
2019-04-29T14:19:40.934Z,78143.97
2019-04-29T14:22:02.611Z,78122.75
2019-04-29T14:24:33.531Z,78154.08
2019-04-29T14:27:02.810Z,78172.27
2019-04-29T14:29:36.136Z,78175.30
2019-04-29T14:32:05.604Z,78154.08
2019-04-29T14:34:43.620Z,78149.02
2019-04-29T14:37:21.162Z,78193.48
2019-04-29T14:39:45.297Z,78231.88
2019-04-29T14:42:30.156Z,78265.22
2019-04-29T14:45:26.897Z,78255.12
2019-04-29T14:48:23.561Z,78241.98
2019-04-29T14:50:54.411Z,78264.22
2019-04-29T14:53:26.276Z,78287.45
2019-04-29T14:55:56.863Z,78292.50
2019-04-29T14:58:26.266Z,78330.91
2019-04-29T15:01:23.438Z,78370.31
2019-04-29T15:03:55.269Z,78368.30
2019-04-29T15:06:28.948Z,78374.36
2019-04-29T15:08:59.264Z,78379.41
2019-04-29T15:11:34.266Z,78373.34
2019-04-29T15:14:25.350Z,78380.42
2019-04-29T15:17:05.621Z,78373.34
2019-04-29T15:20:00.062Z,78354.14
2019-04-29T15:22:32.872Z,78352.13
2019-04-29T15:25:02.212Z,78364.25
2019-04-29T15:27:33.570Z,78378.39
2019-04-29T15:30:03.863Z,78388.50
2019-04-29T15:32:33.142Z,78399.62
2019-04-29T15:35:04.620Z,78413.77
2019-04-29T15:37:33.906Z,78414.77
2019-04-29T15:40:04.669Z,78416.80
2019-04-29T15:42:37.970Z,78416.80
2019-04-29T15:45:07.050Z,78393.55
2019-04-29T15:47:41.702Z,78397.59
2019-04-29T15:50:19.164Z,78382.44
2019-04-29T15:52:49.154Z,78375.36
2019-04-29T15:55:18.491Z,78380.42
2019-04-29T16:00:22.949Z,78381.43
2019-04-29T16:02:52.297Z,78387.48
2019-04-29T16:08:40.680Z,78427.91
2019-04-29T16:11:33.351Z,78424.88
2019-04-29T16:14:09.247Z,78421.84
2019-04-29T16:16:35.570Z,78419.83
2019-04-29T16:19:10.286Z,78433.97
2019-04-29T16:21:41.578Z,78447.11
2019-04-29T16:24:26.014Z,78447.11
2019-04-29T16:26:40.967Z,78466.31
2019-04-29T16:29:15.150Z,78462.27
2019-04-29T16:31:43.224Z,78475.41
2019-04-29T16:34:14.489Z,78478.44
2019-04-29T16:36:49.813Z,78490.56
2019-04-29T16:39:15.695Z,78513.80
2019-04-29T16:42:02.751Z,78521.89
2019-04-29T16:44:35.947Z,78524.92
2019-04-29T16:47:07.351Z,78521.89
2019-04-29T16:49:38.228Z,78533.00
2019-04-29T16:52:07.481Z,78556.25
2019-04-29T16:54:36.757Z,78557.25
2019-04-29T16:57:07.924Z,78567.36
2019-04-29T16:59:38.910Z,78552.20
2019-04-29T17:02:08.571Z,78552.20
2019-04-29T17:04:38.382Z,78544.12
2019-04-29T17:07:13.362Z,78541.09
2019-04-29T17:10:05.658Z,78544.12
2019-04-29T17:12:59.903Z,78547.15
2019-04-29T17:15:29.748Z,78553.22
2019-04-29T17:17:59.384Z,78546.14
2019-04-29T17:20:29.098Z,78548.16
2019-04-29T17:22:58.366Z,78542.09
2019-04-29T17:25:27.637Z,78545.13
2019-04-29T17:28:36.475Z,78530.98
2019-04-29T17:31:37.935Z,78519.87
2019-04-29T17:34:29.397Z,78514.81
2019-04-29T17:35:14.929Z,78382.44
2019-04-29T17:35:17.350Z,78406.69
2019-04-29T17:36:48.407Z,78526.94
2019-04-29T17:39:20.198Z,78527.95
2019-04-29T17:41:49.481Z,78528.96
2019-04-29T17:44:51.981Z,78541.09
2019-04-29T17:47:49.704Z,78528.96
2019-04-29T17:50:33.566Z,78533.00
2019-04-29T17:53:03.721Z,78536.03
2019-04-29T17:55:55.464Z,78537.05
2019-04-29T17:58:35.857Z,78523.91
2019-04-29T18:01:27.727Z,78530.98
2019-04-29T18:04:16.695Z,78545.13
2019-04-29T18:06:58.933Z,78543.11
2019-04-29T18:09:30.365Z,78549.17
2019-04-29T18:12:05.058Z,78545.13
2019-04-29T18:14:39.084Z,78561.30
2019-04-29T18:17:07.678Z,78571.41
2019-04-29T18:19:55.407Z,78572.41
2019-04-29T18:22:47.795Z,78573.42
2019-04-29T18:25:30.684Z,78565.34
2019-04-29T18:28:00.053Z,78567.36
2019-04-29T18:30:35.736Z,78584.54
2019-04-29T18:33:05.258Z,78587.58
2019-04-29T18:35:35.810Z,78586.56
2019-04-29T18:38:07.487Z,78601.72
2019-04-29T18:40:41.945Z,78601.72
2019-04-29T18:43:09.107Z,78602.73
2019-04-29T18:45:39.143Z,78600.71
2019-04-29T18:48:16.691Z,78600.71
2019-04-29T18:50:41.450Z,78594.64
2019-04-29T18:53:12.575Z,78595.66
2019-04-29T18:55:45.073Z,78587.58
2019-04-29T18:58:16.018Z,78584.54
2019-04-29T19:00:52.331Z,78591.61
2019-04-29T19:03:21.109Z,78585.55
2019-04-29T19:05:55.146Z,78583.53
2019-04-29T19:08:28.607Z,78592.63
2019-04-29T19:10:56.776Z,78593.63
2019-04-29T19:13:30.631Z,78597.67
2019-04-29T19:16:09.561Z,78596.66
2019-04-29T19:18:29.889Z,78609.80
2019-04-29T19:20:59.294Z,78605.77
2019-04-29T19:23:29.700Z,78608.80
2019-04-29T19:25:59.346Z,78604.75
2019-04-29T19:28:30.935Z,78612.84
2019-04-29T19:31:03.166Z,78620.92
2019-04-29T19:33:35.060Z,78624.96
2019-04-29T19:36:01.751Z,78617.89
2019-04-29T19:38:30.992Z,78621.93
2019-04-29T19:41:00.361Z,78620.92
2019-04-29T19:43:30.337Z,78615.87
2019-04-29T19:45:59.699Z,78610.81
2019-04-29T19:48:28.986Z,78617.89
2019-04-29T19:51:14.453Z,78611.83
2019-04-29T19:53:37.718Z,78611.83
2019-04-29T19:56:06.659Z,78617.89
2019-04-29T19:58:35.746Z,78617.89
2019-04-29T20:01:13.826Z,78622.94
2019-04-29T20:03:49.742Z,78641.13
2019-04-29T20:06:24.831Z,78623.95
2019-04-29T20:08:57.022Z,78624.96
2019-04-29T20:11:29.065Z,78627.99
2019-04-29T20:14:01.953Z,78624.96
2019-04-29T20:16:59.648Z,78617.89
2019-04-29T20:19:55.475Z,78618.90
2019-04-29T20:22:20.581Z,78622.94
2019-04-29T20:24:50.915Z,78635.06
2019-04-29T20:27:26.211Z,78635.06
2019-04-29T20:29:55.884Z,78640.13
2019-04-29T20:32:31.688Z,78634.05
2019-04-29T20:35:07.129Z,78646.19
2019-04-29T20:37:31.937Z,78649.22
2019-04-29T20:40:01.796Z,78640.13
2019-04-29T20:42:32.686Z,78644.16
2019-04-29T20:45:02.541Z,78645.17
2019-04-29T20:47:37.874Z,78647.20
2019-04-29T20:50:03.077Z,78646.19
2019-04-29T20:52:52.202Z,78640.13
2019-04-29T20:55:20.435Z,78645.17
2019-04-29T20:57:52.490Z,78644.16
2019-04-29T21:00:24.772Z,78646.19
2019-04-29T21:02:53.474Z,78647.20
2019-04-29T21:05:24.824Z,78657.30
2019-04-29T21:08:03.009Z,78644.16
2019-04-29T21:10:27.722Z,78641.13
2019-04-29T21:13:20.296Z,78635.06
2019-04-29T21:15:59.627Z,78637.09
2019-04-29T21:18:29.401Z,78641.13
2019-04-29T21:20:59.694Z,78640.13
2019-04-29T21:23:35.242Z,78633.05
2019-04-29T21:26:07.155Z,78644.16
2019-04-29T21:28:38.122Z,78654.27
2019-04-29T21:31:05.951Z,78657.30
2019-04-29T21:33:35.616Z,78657.30
2019-04-29T21:36:30.754Z,78648.20
2019-04-29T21:39:26.586Z,78651.23
2019-04-29T21:42:05.709Z,78648.20
2019-04-29T21:44:35.183Z,78659.32
2019-04-29T21:47:08.041Z,78652.25
2019-04-29T21:49:44.905Z,78653.26
2019-04-29T21:52:10.805Z,78663.36
2019-04-29T21:54:44.486Z,78668.41
2019-04-29T21:57:18.508Z,78678.52
2019-04-29T21:59:46.154Z,78685.59
2019-04-29T22:02:17.545Z,78683.58
2019-04-29T22:04:48.943Z,78685.59
2019-04-29T22:07:19.201Z,78680.55
2019-04-29T22:09:50.306Z,78689.64
2019-04-29T22:12:20.431Z,78690.65
2019-04-29T22:14:56.392Z,78693.68
2019-04-29T22:17:26.356Z,78681.55
2019-04-29T22:19:57.407Z,78672.45
2019-04-29T22:22:30.620Z,78681.55
2019-04-29T22:25:05.803Z,78686.61
2019-04-29T22:27:34.230Z,78682.56
2019-04-29T22:30:05.821Z,78702.77
2019-04-29T22:32:35.676Z,78702.77
2019-04-29T22:35:06.606Z,78692.67
2019-04-29T22:37:38.203Z,78695.70
2019-04-29T22:40:08.010Z,78684.59
2019-04-29T22:42:48.710Z,78696.71
2019-04-29T22:45:19.665Z,78695.70
2019-04-29T22:47:49.402Z,78695.70
2019-04-29T22:50:19.028Z,78702.77
2019-04-29T22:52:49.434Z,78701.77
2019-04-29T22:55:18.718Z,78715.91
2019-04-29T22:57:47.954Z,78719.95
2019-04-29T23:00:19.660Z,78719.95
2019-04-29T23:02:48.912Z,78716.92
2019-04-29T23:05:23.607Z,78714.91
2019-04-29T23:07:52.865Z,78718.94
2019-04-29T23:10:26.246Z,78716.92
2019-04-29T23:12:57.238Z,78724.00
2019-04-29T23:15:26.007Z,78742.19
2019-04-29T23:17:57.312Z,78755.33
2019-04-29T23:20:45.633Z,78755.33
2019-04-29T23:23:20.155Z,78762.40
2019-04-29T23:25:55.660Z,78757.34
2019-04-29T23:28:28.384Z,78759.37
2019-04-29T23:30:58.312Z,78758.36
2019-04-29T23:33:27.653Z,78756.34
2019-04-29T23:35:57.905Z,78758.36
2019-04-29T23:38:27.213Z,78747.23
2019-04-29T23:40:57.791Z,78747.23
2019-04-29T23:43:28.539Z,78757.34
2019-04-29T23:46:00.519Z,78762.40
2019-04-29T23:48:38.689Z,78758.36
2019-04-29T23:51:00.882Z,78756.34
2019-04-29T23:53:31.959Z,78758.36
2019-04-29T23:56:05.577Z,78742.19
2019-04-29T23:58:52.676Z,78748.25
